Flight Track Log - Related Links

Times and Time Zones

All times are in EDT time to prevent confusion due to time zone crossing. See the ASQ5244 flight status page for this flight to view local times or setup timezone preferences in your user account.


Time Position Orientation Groundspeed Altitude Reporting Facility
EDT Latitude Longitude Course Direction KTS MPH feet Rate Location/Type
Sun 11:09:18 AM 33.6333 -84.4833 270° West 181 208 2,500  Level Atlanta TRACON
Sun 11:10:18 AM 33.6333 -84.5667 270° West 260 299 4,900 2,619 Climbing Atlanta TRACON
Sun 11:11:24 AM 33.6333 -84.6667 270° West 276 318 8,000 2,524 Climbing Atlanta TRACON
Sun 11:12:43 AM 33.6189 -84.7772 261° West 281 323 11,000 1,727 Climbing Atlanta Center
Sun 11:13:43 AM 33.5869 -84.8767 249° West 301 346 12,000 1,250 Climbing Atlanta Center
Sun 11:14:43 AM 33.5528 -84.9861 249° West 343 395 13,500 1,500 Climbing Atlanta Center
Sun 11:15:43 AM 33.5164 -85.1003 249° West 362 417 15,000 1,550 Climbing Atlanta Center
Sun 11:16:43 AM 33.4444 -85.2014 230° Southwest 368 423 16,600 1,400 Climbing Atlanta Center
Sun 11:17:43 AM 33.3642 -85.2825 220° Southwest 368 423 17,800 700 Climbing Atlanta Center
Sun 11:18:43 AM 33.2883 -85.3683 223° Southwest 378 435 18,000 100 Climbing Atlanta Center
Sun 11:19:43 AM 33.2017 -85.4564 220° Southwest 394 453 18,000  Level Atlanta Center
Sun 11:20:43 AM 33.1150 -85.5467 221° Southwest 406 467 18,000  Level Atlanta Center
Sun 11:21:43 AM 33.0242 -85.6344 219° Southwest 413 475 18,000 -100 Level Atlanta Center
Sun 11:22:43 AM 32.9372 -85.7294 223° Southwest 418 481 17,800 -1,000 Descending Atlanta Center
Sun 11:23:43 AM 32.8525 -85.8217 222° Southwest 418 481 16,000 -2,000 Descending Atlanta Center
Sun 11:24:43 AM 32.7700 -85.9064 221° Southwest 418 481 13,800 -2,200 Descending Atlanta Center
Sun 11:25:43 AM 32.6892 -85.9911 221° Southwest 401 461 11,600 -1,800 Descending Atlanta Center
Sun 11:26:43 AM 32.6111 -86.0536 214° Southwest 377 434 10,200 -1,500 Descending Atlanta Center
Sun 11:27:43 AM 32.5394 -86.0914 204° Southwest 311 358 8,600 -1,850 Descending Atlanta Center
Sun 11:28:43 AM 32.4644 -86.0822 174° South 283 326 6,500 -1,300 Descending Atlanta Center
Sun 11:29:43 AM 32.4014 -86.1078 199° South 265 305 6,000 -900 Descending Atlanta Center
Sun 11:30:43 AM 32.3625 -86.1806 238° Southwest 238 274 4,700 -1,750 Descending Atlanta Center
Sun 11:31:43 AM 32.3014 -86.2208 209° Southwest 249 287 2,500 -2,200 Descending Atlanta Center
Sun 11:33:00 AM 32.3000 -86.3833 270° West  Level FlightAware Approximate
Sun 11:40:00 AM 32.3006 -86.3940 270° West  Level Estimated
Sun 11:41:00 AM 32.3006 -86.3940 270° West  Level Estimated
Sun 11:42:00 AM 32.3006 -86.3940 270° West  Level Estimated

Login

Don't have an account? Register now (free) for customized features, flight alerts, and more!